sensor_id;sensor_type;location;lat;lon;timestamp;pressure;altitude;pressure_sealevel;temperature;humidity
64544;BME280;50936;51.660;5.616;2023-07-08T00:01:19;101330.97;;;29.13;36.68
64544;BME280;50936;51.660;5.616;2023-07-08T00:03:47;101325.59;;;29.12;36.62
64544;BME280;50936;51.660;5.616;2023-07-08T00:06:25;101322.22;;;29.16;36.73
64544;BME280;50936;51.660;5.616;2023-07-08T00:08:54;101309.78;;;29.12;36.32
64544;BME280;50936;51.660;5.616;2023-07-08T00:11:22;101314.47;;;29.12;36.64
64544;BME280;50936;51.660;5.616;2023-07-08T00:13:49;101301.66;;;29.11;36.74
64544;BME280;50936;51.660;5.616;2023-07-08T00:16:18;101306.34;;;29.10;36.79
64544;BME280;50936;51.660;5.616;2023-07-08T00:18:46;101309.13;;;29.10;36.68
64544;BME280;50936;51.660;5.616;2023-07-08T00:21:16;101308.06;;;29.11;36.57
64544;BME280;50936;51.660;5.616;2023-07-08T00:23:48;101296.31;;;29.09;36.70
64544;BME280;50936;51.660;5.616;2023-07-08T00:26:25;101310.63;;;29.20;36.68
64544;BME280;50936;51.660;5.616;2023-07-08T00:28:53;101299.72;;;29.11;36.20
64544;BME280;50936;51.660;5.616;2023-07-08T00:31:22;101299.09;;;29.09;36.45
64544;BME280;50936;51.660;5.616;2023-07-08T00:33:52;101299.09;;;29.09;36.24
64544;BME280;50936;51.660;5.616;2023-07-08T00:36:26;101302.72;;;29.10;36.06
64544;BME280;50936;51.660;5.616;2023-07-08T00:38:54;101298.25;;;29.09;36.14
64544;BME280;50936;51.660;5.616;2023-07-08T00:41:35;101291.19;;;29.13;36.52
64544;BME280;50936;51.660;5.616;2023-07-08T00:44:05;101292.69;;;29.09;36.17
64544;BME280;50936;51.660;5.616;2023-07-08T00:46:42;101292.91;;;29.14;36.25
64544;BME280;50936;51.660;5.616;2023-07-08T00:49:25;101291.00;;;29.14;36.43
64544;BME280;50936;51.660;5.616;2023-07-08T00:54:55;101290.13;;;29.07;36.08
64544;BME280;50936;51.660;5.616;2023-07-08T00:57:31;101291.38;;;29.11;36.20
64544;BME280;50936;51.660;5.616;2023-07-08T01:00:07;101289.25;;;29.13;35.87
64544;BME280;50936;51.660;5.616;2023-07-08T01:02:43;101295.88;;;29.12;35.91
64544;BME280;50936;51.660;5.616;2023-07-08T01:05:23;101300.38;;;29.13;35.80
64544;BME280;50936;51.660;5.616;2023-07-08T01:07:58;101293.09;;;29.12;36.10
64544;BME280;50936;51.660;5.616;2023-07-08T01:10:34;101289.66;;;29.10;36.25
64544;BME280;50936;51.660;5.616;2023-07-08T01:13:07;101282.84;;;29.06;36.10
64544;BME280;50936;51.660;5.616;2023-07-08T01:15:40;101283.06;;;29.05;36.26
64544;BME280;50936;51.660;5.616;2023-07-08T01:18:13;101288.41;;;29.06;36.03
64544;BME280;50936;51.660;5.616;2023-07-08T01:20:43;101284.69;;;29.39;35.74
64544;BME280;50936;51.660;5.616;2023-07-08T01:23:11;101286.69;;;29.12;36.12
64544;BME280;50936;51.660;5.616;2023-07-08T01:25:39;101284.56;;;29.07;36.20
64544;BME280;50936;51.660;5.616;2023-07-08T01:28:09;101279.44;;;29.04;35.92
64544;BME280;50936;51.660;5.616;2023-07-08T01:30:37;101278.81;;;29.02;36.22
64544;BME280;50936;51.660;5.616;2023-07-08T01:33:10;101283.28;;;29.03;36.30
64544;BME280;50936;51.660;5.616;2023-07-08T01:35:43;101280.50;;;29.03;36.03
64544;BME280;50936;51.660;5.616;2023-07-08T01:38:13;101285.22;;;29.03;35.99
64544;BME280;50936;51.660;5.616;2023-07-08T01:40:54;101281.13;;;29.12;35.92
64544;BME280;50936;51.660;5.616;2023-07-08T01:43:23;101276.03;;;29.02;35.96
64544;BME280;50936;51.660;5.616;2023-07-08T01:45:51;101277.09;;;29.01;36.13
64544;BME280;50936;51.660;5.616;2023-07-08T01:48:22;101273.88;;;29.04;35.89
64544;BME280;50936;51.660;5.616;2023-07-08T01:51:05;101270.22;;;29.10;35.99
64544;BME280;50936;51.660;5.616;2023-07-08T01:53:40;101270.47;;;29.02;35.89
64544;BME280;50936;51.660;5.616;2023-07-08T01:56:09;101269.38;;;29.03;36.00
64544;BME280;50936;51.660;5.616;2023-07-08T01:58:38;101259.34;;;29.02;36.02
64544;BME280;50936;51.660;5.616;2023-07-08T02:01:06;101255.94;;;29.00;36.09
64544;BME280;50936;51.660;5.616;2023-07-08T02:03:34;101256.78;;;29.01;36.09
64544;BME280;50936;51.660;5.616;2023-07-08T02:06:02;101245.66;;;29.01;35.84
64544;BME280;50936;51.660;5.616;2023-07-08T02:08:30;101248.66;;;28.99;36.15
64544;BME280;50936;51.660;5.616;2023-07-08T02:10:58;101250.38;;;29.00;35.90
64544;BME280;50936;51.660;5.616;2023-07-08T02:13:26;101243.72;;;29.01;35.98
64544;BME280;50936;51.660;5.616;2023-07-08T02:15:53;101248.22;;;29.02;36.07
64544;BME280;50936;51.660;5.616;2023-07-08T02:18:20;101246.50;;;29.01;36.23
64544;BME280;50936;51.660;5.616;2023-07-08T02:20:47;101246.50;;;29.01;36.15
64544;BME280;50936;51.660;5.616;2023-07-08T02:23:15;101241.81;;;29.02;35.96
64544;BME280;50936;51.660;5.616;2023-07-08T02:25:50;101237.94;;;29.09;36.14
64544;BME280;50936;51.660;5.616;2023-07-08T02:28:18;101240.72;;;29.03;35.90
64544;BME280;50936;51.660;5.616;2023-07-08T02:30:46;101240.94;;;29.01;35.86
64544;BME280;50936;51.660;5.616;2023-07-08T02:33:13;101236.25;;;29.02;36.15
64544;BME280;50936;51.660;5.616;2023-07-08T02:35:44;101231.53;;;29.02;35.98
64544;BME280;50936;51.660;5.616;2023-07-08T02:38:12;101225.97;;;29.02;36.14
64544;BME280;50936;51.660;5.616;2023-07-08T02:40:40;101237.09;;;29.02;35.93
64544;BME280;50936;51.660;5.616;2023-07-08T02:43:07;101231.75;;;29.01;35.89
64544;BME280;50936;51.660;5.616;2023-07-08T02:45:34;101225.97;;;29.02;36.10
64544;BME280;50936;51.660;5.616;2023-07-08T02:48:02;101228.13;;;29.00;35.92
64544;BME280;50936;51.660;5.616;2023-07-08T02:50:31;101230.91;;;29.00;35.63
64544;BME280;50936;51.660;5.616;2023-07-08T02:52:58;101216.38;;;28.98;35.92
64544;BME280;50936;51.660;5.616;2023-07-08T02:55:25;101228.13;;;29.00;35.90
64544;BME280;50936;51.660;5.616;2023-07-08T02:57:52;101218.69;;;29.01;36.18
64544;BME280;50936;51.660;5.616;2023-07-08T03:00:19;101219.78;;;29.00;35.86
64544;BME280;50936;51.660;5.616;2023-07-08T03:02:45;101218.06;;;28.99;36.10
64544;BME280;50936;51.660;5.616;2023-07-08T03:05:13;101211.44;;;29.00;35.85
64544;BME280;50936;51.660;5.616;2023-07-08T03:07:40;101218.69;;;29.01;35.98
64544;BME280;50936;51.660;5.616;2023-07-08T03:10:07;101223.41;;;29.01;36.17
64544;BME280;50936;51.660;5.616;2023-07-08T03:12:34;101223.84;;;28.97;35.97
64544;BME280;50936;51.660;5.616;2023-07-08T03:15:02;101228.13;;;29.00;36.11
64544;BME280;50936;51.660;5.616;2023-07-08T03:17:29;101231.75;;;29.01;36.03
64544;BME280;50936;51.660;5.616;2023-07-08T03:19:56;101234.53;;;29.01;35.99
64544;BME280;50936;51.660;5.616;2023-07-08T03:22:23;101235.38;;;29.01;35.82
64544;BME280;50936;51.660;5.616;2023-07-08T03:24:50;101225.97;;;29.02;36.03
64544;BME280;50936;51.660;5.616;2023-07-08T03:27:20;101239.88;;;29.02;36.11
64544;BME280;50936;51.660;5.616;2023-07-08T03:29:49;101235.38;;;29.01;36.00
64544;BME280;50936;51.660;5.616;2023-07-08T03:32:16;101237.31;;;29.01;35.96
64544;BME280;50936;51.660;5.616;2023-07-08T03:34:43;101233.69;;;29.00;35.79
64544;BME280;50936;51.660;5.616;2023-07-08T03:37:10;101240.94;;;29.01;35.80
64544;BME280;50936;51.660;5.616;2023-07-08T03:39:37;101236.47;;;29.00;36.09
64544;BME280;50936;51.660;5.616;2023-07-08T03:42:04;101238.63;;;28.98;35.78
64544;BME280;50936;51.660;5.616;2023-07-08T03:44:31;101239.25;;;29.00;35.80
64544;BME280;50936;51.660;5.616;2023-07-08T03:46:59;101237.31;;;29.01;36.02
64544;BME280;50936;51.660;5.616;2023-07-08T03:49:26;101237.53;;;28.99;35.88
64544;BME280;50936;51.660;5.616;2023-07-08T03:51:55;101238.00;;;28.96;35.79
64544;BME280;50936;51.660;5.616;2023-07-08T03:54:23;101243.34;;;28.91;35.78
64544;BME280;50936;51.660;5.616;2023-07-08T03:56:54;101244.41;;;28.90;35.59
64544;BME280;50936;51.660;5.616;2023-07-08T03:59:24;101238.00;;;28.83;35.46
64544;BME280;50936;51.660;5.616;2023-07-08T04:01:53;101236.31;;;28.82;35.82
64544;BME280;50936;51.660;5.616;2023-07-08T04:04:22;101244.03;;;28.79;35.44
64544;BME280;50936;51.660;5.616;2023-07-08T04:06:49;101240.56;;;28.77;35.60
64544;BME280;50936;51.660;5.616;2023-07-08T04:09:17;101240.81;;;28.76;35.68
64544;BME280;50936;51.660;5.616;2023-07-08T04:11:44;101229.91;;;28.74;35.79
64544;BME280;50936;51.660;5.616;2023-07-08T04:14:11;101237.63;;;28.72;35.85
64544;BME280;50936;51.660;5.616;2023-07-08T04:16:46;101235.69;;;28.79;35.51
64544;BME280;50936;51.660;5.616;2023-07-08T04:19:18;101243.19;;;28.72;35.60
64544;BME280;50936;51.660;5.616;2023-07-08T04:21:46;101237.63;;;28.72;35.82
64544;BME280;50936;51.660;5.616;2023-07-08T04:24:14;101235.06;;;28.71;35.52
64544;BME280;50936;51.660;5.616;2023-07-08T04:26:44;101235.91;;;28.71;35.79
64544;BME280;50936;51.660;5.616;2023-07-08T04:29:19;101241.03;;;28.74;35.55
64544;BME280;50936;51.660;5.616;2023-07-08T04:31:48;101238.91;;;28.70;35.41
64544;BME280;50936;51.660;5.616;2023-07-08T04:34:16;101244.03;;;28.66;35.63
64544;BME280;50936;51.660;5.616;2023-07-08T04:36:44;101242.34;;;28.65;35.44
64544;BME280;50936;51.660;5.616;2023-07-08T04:39:11;101249.81;;;28.65;35.58
64544;BME280;50936;51.660;5.616;2023-07-08T04:41:40;101247.25;;;28.63;35.52
64544;BME280;50936;51.660;5.616;2023-07-08T04:44:08;101248.31;;;28.62;35.45
64544;BME280;50936;51.660;5.616;2023-07-08T04:46:57;101247.22;;;28.76;35.76
64544;BME280;50936;51.660;5.616;2023-07-08T04:49:25;101244.47;;;28.63;35.64
64544;BME280;50936;51.660;5.616;2023-07-08T04:51:58;101242.75;;;28.62;35.44
64544;BME280;50936;51.660;5.616;2023-07-08T04:54:26;101239.97;;;28.62;35.89
64544;BME280;50936;51.660;5.616;2023-07-08T04:56:52;101239.34;;;28.60;35.76
64544;BME280;50936;51.660;5.616;2023-07-08T04:59:24;101231.66;;;28.62;35.82
64544;BME280;50936;51.660;5.616;2023-07-08T05:01:53;101233.78;;;28.60;35.69
64544;BME280;50936;51.660;5.616;2023-07-08T05:04:21;101240.66;;;28.57;35.82
64544;BME280;50936;51.660;5.616;2023-07-08T05:06:49;101243.19;;;28.59;35.82
64544;BME280;50936;51.660;5.616;2023-07-08T05:09:16;101242.75;;;28.55;36.05
64544;BME280;50936;51.660;5.616;2023-07-08T05:11:44;101244.28;;;28.58;36.11
64544;BME280;50936;51.660;5.616;2023-07-08T05:14:12;101232.06;;;28.59;36.08
64544;BME280;50936;51.660;5.616;2023-07-08T05:16:40;101233.16;;;28.58;36.10
64544;BME280;50936;51.660;5.616;2023-07-08T05:19:07;101228.66;;;28.57;35.84
64544;BME280;50936;51.660;5.616;2023-07-08T05:21:34;101226.50;;;28.59;36.04
64544;BME280;50936;51.660;5.616;2023-07-08T05:24:03;101234.00;;;28.58;36.18
64544;BME280;50936;51.660;5.616;2023-07-08T05:26:31;101239.78;;;28.57;35.89
64544;BME280;50936;51.660;5.616;2023-07-08T05:28:59;101239.34;;;28.60;36.13
64544;BME280;50936;51.660;5.616;2023-07-08T05:31:27;101232.06;;;28.59;36.18
64544;BME280;50936;51.660;5.616;2023-07-08T05:34:14;101235.72;;;28.59;36.01
64544;BME280;50936;51.660;5.616;2023-07-08T05:36:41;101234.63;;;28.60;36.28
64544;BME280;50936;51.660;5.616;2023-07-08T05:39:09;101238.50;;;28.59;36.27
64544;BME280;50936;51.660;5.616;2023-07-08T05:41:36;101239.34;;;28.60;36.15
64544;BME280;50936;51.660;5.616;2023-07-08T05:44:03;101232.06;;;28.59;36.03
64544;BME280;50936;51.660;5.616;2023-07-08T05:46:30;101238.06;;;28.63;36.21
64544;BME280;50936;51.660;5.616;2023-07-08T05:48:57;101233.38;;;28.63;36.24
64544;BME280;50936;51.660;5.616;2023-07-08T05:51:27;101234.22;;;28.64;36.13
64544;BME280;50936;51.660;5.616;2023-07-08T05:53:54;101235.06;;;28.64;36.30
64544;BME280;50936;51.660;5.616;2023-07-08T05:56:21;101228.66;;;28.64;36.28
64544;BME280;50936;51.660;5.616;2023-07-08T05:58:48;101229.94;;;28.61;36.29
64544;BME280;50936;51.660;5.616;2023-07-08T06:01:15;101231.00;;;28.67;36.50
64544;BME280;50936;51.660;5.616;2023-07-08T06:03:42;101240.19;;;28.67;36.58
64544;BME280;50936;51.660;5.616;2023-07-08T06:06:09;101241.88;;;28.68;36.33
64544;BME280;50936;51.660;5.616;2023-07-08T06:08:36;101239.78;;;28.70;36.62
64544;BME280;50936;51.660;5.616;2023-07-08T06:11:03;101237.63;;;28.72;36.31
64544;BME280;50936;51.660;5.616;2023-07-08T06:13:30;101244.88;;;28.73;36.69
64544;BME280;50936;51.660;5.616;2023-07-08T06:15:58;101245.72;;;28.74;36.46
64544;BME280;50936;51.660;5.616;2023-07-08T06:18:25;101247.44;;;28.75;36.69
64544;BME280;50936;51.660;5.616;2023-07-08T06:20:56;101241.88;;;28.82;36.63
64544;BME280;50936;51.660;5.616;2023-07-08T06:23:25;101242.31;;;28.78;36.40
64544;BME280;50936;51.660;5.616;2023-07-08T06:25:52;101247.84;;;28.78;36.52
64544;BME280;50936;51.660;5.616;2023-07-08T06:28:20;101258.97;;;28.78;36.66
64544;BME280;50936;51.660;5.616;2023-07-08T06:30:47;101261.53;;;28.80;36.75
64544;BME280;50936;51.660;5.616;2023-07-08T06:33:15;101253.22;;;28.80;36.64
64544;BME280;50936;51.660;5.616;2023-07-08T06:35:42;101251.28;;;28.80;36.58
64544;BME280;50936;51.660;5.616;2023-07-08T06:38:10;101249.13;;;28.83;36.71
64544;BME280;50936;51.660;5.616;2023-07-08T06:40:37;101254.25;;;28.86;36.76
64544;BME280;50936;51.660;5.616;2023-07-08T06:43:04;101255.94;;;28.87;36.96
64544;BME280;50936;51.660;5.616;2023-07-08T06:45:46;101252.09;;;28.88;36.93
64544;BME280;50936;51.660;5.616;2023-07-08T06:48:13;101257.44;;;28.89;36.50
64544;BME280;50936;51.660;5.616;2023-07-08T06:50:42;101251.69;;;28.91;36.73
64544;BME280;50936;51.660;5.616;2023-07-08T06:53:13;101251.69;;;28.91;36.88
64544;BME280;50936;51.660;5.616;2023-07-08T06:55:41;101244.81;;;28.87;37.04
64544;BME280;50936;51.660;5.616;2023-07-08T06:58:10;101248.28;;;28.89;36.88
64544;BME280;50936;51.660;5.616;2023-07-08T07:00:37;101245.25;;;28.90;36.78
64544;BME280;50936;51.660;5.616;2023-07-08T07:03:04;101247.38;;;28.88;36.69
64544;BME280;50936;51.660;5.616;2023-07-08T07:05:31;101248.28;;;28.89;36.76
64544;BME280;50936;51.660;5.616;2023-07-08T07:07:58;101243.78;;;28.88;36.98
64544;BME280;50936;51.660;5.616;2023-07-08T07:10:26;101243.56;;;28.89;36.91
64544;BME280;50936;51.660;5.616;2023-07-08T07:12:52;101240.56;;;28.91;36.79
64544;BME280;50936;51.660;5.616;2023-07-08T07:15:19;101236.69;;;28.92;37.13
64544;BME280;50936;51.660;5.616;2023-07-08T07:17:46;101229.84;;;28.94;36.72
64544;BME280;50936;51.660;5.616;2023-07-08T07:20:14;101242.44;;;28.97;36.91
64544;BME280;50936;51.660;5.616;2023-07-08T07:22:41;101240.53;;;28.97;36.75
64544;BME280;50936;51.660;5.616;2023-07-08T07:25:08;101252.06;;;29.01;36.80
64544;BME280;50936;51.660;5.616;2023-07-08T07:27:36;101250.16;;;29.02;36.69
64544;BME280;50936;51.660;5.616;2023-07-08T07:30:03;101247.78;;;29.05;36.70
64544;BME280;50936;51.660;5.616;2023-07-08T07:32:30;101243.91;;;29.06;36.87
64544;BME280;50936;51.660;5.616;2023-07-08T07:34:59;101240.06;;;29.07;36.73
64544;BME280;50936;51.660;5.616;2023-07-08T07:37:26;101241.34;;;29.11;36.78
64544;BME280;50936;51.660;5.616;2023-07-08T07:39:53;101231.06;;;29.12;36.63
64544;BME280;50936;51.660;5.616;2023-07-08T07:42:20;101235.13;;;29.16;36.91
64544;BME280;50936;51.660;5.616;2023-07-08T07:44:47;101232.13;;;29.17;36.91
64544;BME280;50936;51.660;5.616;2023-07-08T07:47:14;101236.63;;;29.18;36.79
64544;BME280;50936;51.660;5.616;2023-07-08T07:49:41;101225.50;;;29.18;36.90
64544;BME280;50936;51.660;5.616;2023-07-08T07:52:08;101228.91;;;29.21;36.96
64544;BME280;50936;51.660;5.616;2023-07-08T07:54:38;101231.50;;;29.22;36.84
64544;BME280;50936;51.660;5.616;2023-07-08T07:57:06;101232.34;;;29.23;36.85
64544;BME280;50936;51.660;5.616;2023-07-08T07:59:34;101244.94;;;29.25;37.09
64544;BME280;50936;51.660;5.616;2023-07-08T08:02:00;101240.88;;;29.28;36.92
64544;BME280;50936;51.660;5.616;2023-07-08T08:04:27;101242.56;;;29.29;37.08
64544;BME280;50936;51.660;5.616;2023-07-08T08:06:54;101244.28;;;29.30;36.87
64544;BME280;50936;51.660;5.616;2023-07-08T08:09:21;101244.28;;;29.30;37.05
64544;BME280;50936;51.660;5.616;2023-07-08T08:11:49;101239.34;;;29.32;37.17
64544;BME280;50936;51.660;5.616;2023-07-08T08:14:16;101239.97;;;29.34;37.07
64544;BME280;50936;51.660;5.616;2023-07-08T08:16:43;101243.38;;;29.36;36.91
64544;BME280;50936;51.660;5.616;2023-07-08T08:19:10;101248.50;;;29.39;36.82
64544;BME280;50936;51.660;5.616;2023-07-08T08:21:37;101248.50;;;29.39;37.18
64544;BME280;50936;51.660;5.616;2023-07-08T08:24:04;101250.22;;;29.40;37.23
64544;BME280;50936;51.660;5.616;2023-07-08T08:26:31;101251.09;;;29.41;37.03
64544;BME280;50936;51.660;5.616;2023-07-08T08:28:58;101246.34;;;29.41;36.90
64544;BME280;50936;51.660;5.616;2023-07-08T08:31:27;101256.44;;;29.42;37.16
64544;BME280;50936;51.660;5.616;2023-07-08T08:33:54;101255.34;;;29.43;36.92
64544;BME280;50936;51.660;5.616;2023-07-08T08:36:21;101258.75;;;29.45;37.20
64544;BME280;50936;51.660;5.616;2023-07-08T08:38:48;101260.91;;;29.43;36.82
64544;BME280;50936;51.660;5.616;2023-07-08T08:41:17;101269.44;;;29.48;37.13
64544;BME280;50936;51.660;5.616;2023-07-08T08:43:48;101267.28;;;29.50;37.32
64544;BME280;50936;51.660;5.616;2023-07-08T08:49:04;101270.22;;;29.62;37.07
64544;BME280;50936;51.660;5.616;2023-07-08T08:51:33;101270.69;;;29.52;37.23
64544;BME280;50936;51.660;5.616;2023-07-08T08:54:01;101272.41;;;29.53;37.21
64544;BME280;50936;51.660;5.616;2023-07-08T08:56:34;101272.41;;;29.53;37.43
64544;BME280;50936;51.660;5.616;2023-07-08T09:01:58;101269.00;;;29.51;37.78
64544;BME280;50936;51.660;5.616;2023-07-08T09:04:33;101267.03;;;29.59;37.77
64544;BME280;50936;51.660;5.616;2023-07-08T09:07:12;101264.69;;;29.55;37.64
64544;BME280;50936;51.660;5.616;2023-07-08T09:09:52;101271.50;;;29.60;37.84
64544;BME280;50936;51.660;5.616;2023-07-08T09:12:29;101267.28;;;29.50;37.76
64544;BME280;50936;51.660;5.616;2023-07-08T09:14:58;101266.44;;;29.50;37.88
64544;BME280;50936;51.660;5.616;2023-07-08T09:17:31;101274.97;;;29.55;37.55
64544;BME280;50936;51.660;5.616;2023-07-08T09:28:43;101277.91;;;29.67;37.42
64544;BME280;50936;51.660;5.616;2023-07-08T09:31:26;101270.63;;;29.66;37.64
64544;BME280;50936;51.660;5.616;2023-07-08T09:34:14;101270.09;;;29.89;37.13
64544;BME280;50936;51.660;5.616;2023-07-08T09:36:53;101274.09;;;29.61;37.39
64544;BME280;50936;51.660;5.616;2023-07-08T09:39:20;101271.97;;;29.56;37.67
64544;BME280;50936;51.660;5.616;2023-07-08T09:41:49;101269.63;;;29.53;38.19
64544;BME280;50936;51.660;5.616;2023-07-08T09:44:23;101260.03;;;29.49;38.39
64544;BME280;50936;51.660;5.616;2023-07-08T09:46:54;101255.75;;;29.47;38.31
64544;BME280;50936;51.660;5.616;2023-07-08T09:49:26;101256.16;;;29.50;38.57
64544;BME280;50936;51.660;5.616;2023-07-08T09:52:04;101254.47;;;29.49;38.45
64544;BME280;50936;51.660;5.616;2023-07-08T09:54:31;101258.75;;;29.45;39.00
64544;BME280;50936;51.660;5.616;2023-07-08T09:57:05;101266.44;;;29.50;38.77
64544;BME280;50936;51.660;5.616;2023-07-08T09:59:43;101266.22;;;29.51;39.09
64544;BME280;50936;51.660;5.616;2023-07-08T10:02:51;101266.34;;;29.63;38.41
64544;BME280;50936;51.660;5.616;2023-07-08T10:05:42;101269.75;;;29.65;38.81
64544;BME280;50936;51.660;5.616;2023-07-08T10:08:18;101258.69;;;29.59;38.62
64544;BME280;50936;51.660;5.616;2023-07-08T10:10:57;101254.00;;;29.52;38.57
64544;BME280;50936;51.660;5.616;2023-07-08T10:13:33;101253.16;;;29.52;38.48
64544;BME280;50936;51.660;5.616;2023-07-08T10:16:30;101248.38;;;29.66;38.40
64544;BME280;50936;51.660;5.616;2023-07-08T10:19:00;101242.03;;;29.52;38.62
64544;BME280;50936;51.660;5.616;2023-07-08T10:21:38;101235.34;;;29.60;38.41
64544;BME280;50936;51.660;5.616;2023-07-08T10:27:43;101240.03;;;29.66;38.18
64544;BME280;50936;51.660;5.616;2023-07-08T10:30:23;101234.09;;;29.55;38.36
64544;BME280;50936;51.660;5.616;2023-07-08T10:40:01;101250.97;;;29.61;38.78
64544;BME280;50936;51.660;5.616;2023-07-08T10:45:44;101242.00;;;29.59;38.80
64544;BME280;50936;51.660;5.616;2023-07-08T10:51:22;101249.25;;;29.60;38.59
64544;BME280;50936;51.660;5.616;2023-07-08T10:54:14;101243.25;;;29.63;39.03
64544;BME280;50936;51.660;5.616;2023-07-08T11:00:32;101260.34;;;29.66;39.06
64544;BME280;50936;51.660;5.616;2023-07-08T11:06:17;101248.19;;;29.61;39.37
64544;BME280;50936;51.660;5.616;2023-07-08T11:08:55;101242.84;;;29.59;39.52
64544;BME280;50936;51.660;5.616;2023-07-08T11:14:29;101248.44;;;29.52;40.12
64544;BME280;50936;51.660;5.616;2023-07-08T11:17:30;101250.97;;;29.61;40.05
64544;BME280;50936;51.660;5.616;2023-07-08T11:20:18;101245.81;;;29.64;40.01
64544;BME280;50936;51.660;5.616;2023-07-08T11:23:05;101242.19;;;29.64;39.85
64544;BME280;50936;51.660;5.616;2023-07-08T11:25:41;101240.72;;;29.54;40.29
64544;BME280;50936;51.660;5.616;2023-07-08T11:28:14;101242.44;;;29.55;40.04
64544;BME280;50936;51.660;5.616;2023-07-08T11:30:46;101235.16;;;29.54;40.25
64544;BME280;50936;51.660;5.616;2023-07-08T11:33:21;101239.44;;;29.57;40.39
64544;BME280;50936;51.660;5.616;2023-07-08T11:35:53;101240.72;;;29.54;40.87
64544;BME280;50936;51.660;5.616;2023-07-08T11:38:25;101237.31;;;29.52;40.75
64544;BME280;50936;51.660;5.616;2023-07-08T11:40:56;101233.03;;;29.56;40.82
64544;BME280;50936;51.660;5.616;2023-07-08T11:43:37;101226.56;;;29.63;40.87
64544;BME280;50936;51.660;5.616;2023-07-08T11:46:22;101237.69;;;29.63;40.85
64544;BME280;50936;51.660;5.616;2023-07-08T11:48:53;101232.16;;;29.56;41.26
64544;BME280;50936;51.660;5.616;2023-07-08T11:51:28;101227.88;;;29.60;41.35
64544;BME280;50936;51.660;5.616;2023-07-08T11:54:01;101233.47;;;29.53;41.26
64544;BME280;50936;51.660;5.616;2023-07-08T11:56:57;101236.88;;;29.55;41.12
64544;BME280;50936;51.660;5.616;2023-07-08T11:59:37;101226.56;;;29.63;41.00
64544;BME280;50936;51.660;5.616;2023-07-08T12:02:18;101229.97;;;29.65;41.01
64544;BME280;50936;51.660;5.616;2023-07-08T12:05:12;101232.31;;;29.68;41.51
64544;BME280;50936;51.660;5.616;2023-07-08T12:10:24;101231.69;;;29.66;41.32
64544;BME280;50936;51.660;5.616;2023-07-08T12:12:55;101232.16;;;29.56;41.47
64544;BME280;50936;51.660;5.616;2023-07-08T12:15:24;101225.72;;;29.55;41.81
64544;BME280;50936;51.660;5.616;2023-07-08T12:20:54;101221.81;;;29.63;41.49
64544;BME280;50936;51.660;5.616;2023-07-08T12:23:26;101221.00;;;29.56;41.96
64544;BME280;50936;51.660;5.616;2023-07-08T12:25:55;101214.59;;;29.55;42.09
64544;BME280;50936;51.660;5.616;2023-07-08T12:28:24;101214.59;;;29.55;42.10
64544;BME280;50936;51.660;5.616;2023-07-08T12:30:52;101207.31;;;29.54;41.87
64544;BME280;50936;51.660;5.616;2023-07-08T12:33:27;101210.06;;;29.61;42.38
64544;BME280;50936;51.660;5.616;2023-07-08T12:36:00;101194.06;;;29.56;42.20
64544;BME280;50936;51.660;5.616;2023-07-08T12:38:43;101201.97;;;29.91;41.29
64544;BME280;50936;51.660;5.616;2023-07-08T12:41:16;101195.25;;;29.67;41.66
64544;BME280;50936;51.660;5.616;2023-07-08T12:43:45;101207.28;;;29.61;41.85
64544;BME280;50936;51.660;5.616;2023-07-08T12:46:15;101186.97;;;29.61;41.66
64544;BME280;50936;51.660;5.616;2023-07-08T12:48:44;101192.09;;;29.64;41.78
64544;BME280;50936;51.660;5.616;2023-07-08T12:51:17;101198.69;;;29.69;41.67
64544;BME280;50936;51.660;5.616;2023-07-08T12:53:50;101199.13;;;29.66;42.10
64544;BME280;50936;51.660;5.616;2023-07-08T12:56:21;101189.47;;;29.69;42.01
64544;BME280;50936;51.660;5.616;2023-07-08T12:58:56;101189.69;;;29.67;42.23
64544;BME280;50936;51.660;5.616;2023-07-08T13:01:26;101192.25;;;29.69;42.33
64544;BME280;50936;51.660;5.616;2023-07-08T13:03:59;101193.97;;;29.70;42.34
64544;BME280;50936;51.660;5.616;2023-07-08T13:06:31;101185.84;;;29.68;42.15
64544;BME280;50936;51.660;5.616;2023-07-08T13:11:41;101195.03;;;29.69;42.32
64544;BME280;50936;51.660;5.616;2023-07-08T13:14:09;101196.13;;;29.68;42.41
64544;BME280;50936;51.660;5.616;2023-07-08T13:16:36;101186.69;;;29.69;42.66
64544;BME280;50936;51.660;5.616;2023-07-08T13:19:04;101190.56;;;29.68;42.28
64544;BME280;50936;51.660;5.616;2023-07-08T13:21:31;101195.91;;;29.69;42.55
64544;BME280;50936;51.660;5.616;2023-07-08T13:23:59;101192.25;;;29.69;42.32
64544;BME280;50936;51.660;5.616;2023-07-08T13:26:29;101187.56;;;29.69;42.51
64544;BME280;50936;51.660;5.616;2023-07-08T13:29:03;101187.97;;;29.73;42.98
64544;BME280;50936;51.660;5.616;2023-07-08T13:31:38;101190.09;;;29.71;42.99
64544;BME280;50936;51.660;5.616;2023-07-08T13:34:10;101195.66;;;29.71;42.98
64544;BME280;50936;51.660;5.616;2023-07-08T13:36:44;101197.38;;;29.72;42.66
64544;BME280;50936;51.660;5.616;2023-07-08T13:39:21;101200.59;;;29.75;42.64
64544;BME280;50936;51.660;5.616;2023-07-08T13:41:53;101179.81;;;29.71;42.77
64544;BME280;50936;51.660;5.616;2023-07-08T13:44:21;101185.16;;;29.73;42.67
64544;BME280;50936;51.660;5.616;2023-07-08T13:46:53;101184.09;;;29.74;42.66
64544;BME280;50936;51.660;5.616;2023-07-08T13:49:49;101184.28;;;29.79;43.05
64544;BME280;50936;51.660;5.616;2023-07-08T13:52:20;101186.66;;;29.75;42.63
64544;BME280;50936;51.660;5.616;2023-07-08T13:55:01;101191.09;;;29.83;43.05
64544;BME280;50936;51.660;5.616;2023-07-08T13:57:39;101181.50;;;29.79;43.11
64544;BME280;50936;51.660;5.616;2023-07-08T14:00:06;101182.38;;;29.73;43.05
64544;BME280;50936;51.660;5.616;2023-07-08T14:02:43;101180.66;;;29.72;43.14